Forside
METAR-TAF:

METAR-TAF

Lufthavne :

Lankaran, Aserbajdsjan

Breddekreds: 38-44-47N, længdekreds: 048-49-04E, højde: 9 m

Aktuelle vejr

Denne rapport blev lavet for 1 time og 3 minutter siden, kl. 09:00 UTC
Vind 5 kt fra nordnordøst
Temperatur 25°C
Fugtighed 69%
Tryk 1017 hPa
Sigt 10 km eller mere
Brudte skyer i en højde af 4400 ft

METAR: UBBL 230900Z 03005KT 9999 BKN044 25/19 Q1017 R33/CLRD// NOSIG RMK MT OP

Tid: 14:03 (10:03 UTC)

Vejrudsigter

Denne rapport blev lavet for 3 timer og 46 minutter siden, kl. 06:17 UTC
Foreløbig gælder fra 23 på 06 UTC til 24 på 06 UTC
Vind 8 kt fra østnordøst
Sigt: 8000 m
Brudte skyer i en højde af 3000 ft
Brudte skyer i en højde af 10000 ft
Midlertidig
fra 23 på 06 UTC til 23 på 12 UTC
Vind 6 kt fra nord
Sigt: 5000 m
Spredte skyer i en højde af 3000 ft, Cumulonimbus.
tordenbyger, let regn
Midlertidig
fra 23 på 12 UTC til 23 på 18 UTC
Vind 6 kt fra øst

TAF: UBBL 230617Z 2306/2406 06008KT 8000 BKN030 BKN100 TX26/2311Z TN16/2402Z TEMPO 2306/2312 36006KT 5000 -TSRA SCT030CB TEMPO 2312/2318 10006KT

Vejrobservationer og prognoser fra mere end 4000 lufthavne (METAR og TAF).

De gule og røde prikker repræsenterer de meteorologiske stationer.

Flyt musen over at se navnet på stationen.

Så klik over at se vejr observationer og prognoser.

At skifte det kort: Klik på de grønne knapper med et sort kors for at zoome ind; på den grønne knap med en bindestreg for at zoome ud; eller på de grønne pile for tilstødende kort.


METAR-TAF: